Time;durP1;ratioP1;P1;durP2;ratioP2;P2;SDS_P1;SDS_P2;PMS_P1;PMS_P2;Temp;Humidity;BMP_temperature;BMP_pressure;BME280_temperature;BME280_humidity;BME280_pressure;Samples;Min_cycle;Max_cycle;Signal;HPM_P1;HPM_P2
2021/05/04 00:02:17;;;;;;;7.97;5.60;;;;;;;10.93;46.28;99852.00;5055245;28;20044;-82
2021/05/04 00:04:44;;;;;;;7.38;5.47;;;;;;;10.89;46.14;99856.63;5032477;28;20061;-82
2021/05/04 00:07:12;;;;;;;6.78;5.47;;;;;;;10.89;45.98;99838.09;5063695;28;20044;-82
2021/05/04 00:09:39;;;;;;;6.63;5.30;;;;;;;10.83;46.17;99827.84;5067358;28;20039;-83
2021/05/04 00:12:06;;;;;;;8.23;5.65;;;;;;;10.80;46.70;99824.53;5075628;28;20048;-82
2021/05/04 00:14:34;;;;;;;7.45;5.47;;;;;;;10.78;46.64;99824.59;5060546;28;20123;-81
2021/05/04 00:17:03;;;;;;;9.27;5.68;;;;;;;10.80;46.40;99820.06;5057934;28;20049;-82
2021/05/04 00:19:30;;;;;;;7.03;5.47;;;;;;;10.76;46.68;99809.72;5051940;28;20057;-82
2021/05/04 00:21:56;;;;;;;8.75;5.70;;;;;;;10.72;46.80;99798.47;5049696;28;20045;-83
2021/05/04 00:24:22;;;;;;;8.05;5.05;;;;;;;10.74;46.75;99780.69;5031994;28;20065;-83
2021/05/04 00:26:50;;;;;;;7.30;5.07;;;;;;;10.74;46.56;99780.69;5054482;28;20080;-83
2021/05/04 00:29:16;;;;;;;8.68;5.25;;;;;;;10.74;46.78;99770.09;5052356;28;20055;-83
2021/05/04 00:31:42;;;;;;;6.65;5.03;;;;;;;10.73;46.61;99771.03;5055014;28;20496;-82
2021/05/04 00:34:10;;;;;;;6.70;5.30;;;;;;;10.73;46.70;99763.09;5033057;28;20063;-82
2021/05/04 00:36:36;;;;;;;6.57;4.97;;;;;;;10.75;46.53;99760.34;5055307;28;20079;-82
2021/05/04 00:39:03;;;;;;;6.43;5.00;;;;;;;10.70;46.87;99750.06;5048487;28;20045;-82
2021/05/04 00:41:32;;;;;;;6.45;4.55;;;;;;;10.76;46.06;99743.53;5055084;28;20048;-83
2021/05/04 00:43:58;;;;;;;7.25;4.88;;;;;;;10.78;46.27;99754.88;5066032;28;20112;-83
2021/05/04 00:46:24;;;;;;;7.93;5.53;;;;;;;10.74;46.25;99732.16;5065533;28;20128;-83
2021/05/04 00:48:51;;;;;;;6.95;4.82;;;;;;;10.76;46.41;99731.16;5063273;28;20028;-83
2021/05/04 00:51:20;;;;;;;7.75;4.85;;;;;;;10.82;46.17;99722.00;5067472;28;20041;-82
2021/05/04 00:53:47;;;;;;;6.13;4.60;;;;;;;10.81;46.28;99717.63;5065590;28;20060;-84
2021/05/04 00:56:14;;;;;;;6.50;4.63;;;;;;;10.79;45.89;99707.13;5063358;28;20071;-83
2021/05/04 00:58:42;;;;;;;6.90;4.82;;;;;;;10.79;46.11;99704.47;5061652;28;20071;-83
2021/05/04 01:01:08;;;;;;;6.53;4.70;;;;;;;10.79;46.22;99695.69;5054920;28;20324;-82
2021/05/04 01:03:34;;;;;;;6.07;4.50;;;;;;;10.83;45.81;99684.84;5061207;28;20037;-83
2021/05/04 01:06:01;;;;;;;7.15;4.28;;;;;;;10.86;45.82;99684.63;5063235;28;20043;-83
2021/05/04 01:08:28;;;;;;;6.72;4.40;;;;;;;10.90;45.55;99680.00;5062174;28;20104;-83
2021/05/04 01:10:56;;;;;;;6.78;4.60;;;;;;;10.88;45.55;99668.63;5054898;28;20064;-83
2021/05/04 01:13:24;;;;;;;5.78;4.53;;;;;;;10.94;45.83;99670.09;5062307;28;20049;-83
2021/05/04 01:15:50;;;;;;;5.60;4.32;;;;;;;10.96;45.32;99661.09;5064178;28;20128;-83
2021/05/04 01:18:17;;;;;;;5.35;4.28;;;;;;;10.93;45.76;99653.34;5055024;28;20379;-82
2021/05/04 01:20:53;;;;;;;6.55;4.28;;;;;;;10.99;45.50;99654.78;5047604;28;20045;-83
2021/05/04 01:23:21;;;;;;;9.25;4.63;;;;;;;11.01;45.54;99651.09;5047771;28;20051;-83
2021/05/04 01:25:48;;;;;;;6.63;4.38;;;;;;;11.09;45.18;99640.88;5047945;28;20151;-83
2021/05/04 01:28:14;;;;;;;6.47;4.50;;;;;;;11.19;44.87;99634.03;5050963;28;20049;-82
2021/05/04 01:30:41;;;;;;;7.40;4.40;;;;;;;11.17;44.85;99627.16;5051587;28;20045;-83
2021/05/04 01:33:09;;;;;;;9.52;4.38;;;;;;;11.22;45.31;99630.38;5048845;28;20052;-83
2021/05/04 01:35:37;;;;;;;13.07;4.60;;;;;;;11.17;45.01;99614.78;5044623;28;20077;-83
2021/05/04 01:38:04;;;;;;;6.97;4.60;;;;;;;11.19;44.85;99622.59;5052034;28;20116;-83
2021/05/04 01:40:30;;;;;;;5.25;4.40;;;;;;;11.15;45.22;99610.50;5051950;28;20067;-82
2021/05/04 01:42:57;;;;;;;6.00;4.40;;;;;;;11.13;45.56;99601.78;5054769;28;20053;-82
2021/05/04 01:45:23;;;;;;;7.28;4.13;;;;;;;11.10;45.23;99602.84;5050825;28;20047;-82
2021/05/04 01:47:49;;;;;;;6.18;3.97;;;;;;;11.13;45.54;99609.75;5053597;28;20359;-82
2021/05/04 01:50:16;;;;;;;6.18;4.45;;;;;;;11.13;45.70;99596.50;5051378;28;20104;-82
2021/05/04 01:52:42;;;;;;;5.82;4.65;;;;;;;11.13;45.38;99592.03;5048965;28;20053;-84
2021/05/04 01:55:09;;;;;;;5.80;4.45;;;;;;;11.19;45.34;99596.09;5048483;28;20049;-83
2021/05/04 01:57:37;;;;;;;4.22;3.38;;;;;;;11.17;45.28;99590.06;5050965;28;20060;-83
2021/05/04 02:00:08;;;;;;;5.80;3.70;;;;;;;11.16;45.43;99583.91;5031892;28;20053;-83
2021/05/04 02:02:36;;;;;;;5.57;3.95;;;;;;;11.16;45.63;99575.13;5052330;28;20069;-82
2021/05/04 02:05:05;;;;;;;4.88;4.10;;;;;;;11.25;45.15;99571.88;5038134;28;20086;-81
2021/05/04 02:07:33;;;;;;;7.13;4.35;;;;;;;11.22;45.50;99569.41;5052829;28;20065;-82
2021/05/04 02:09:59;;;;;;;6.35;4.45;;;;;;;11.18;45.83;99571.38;5048764;28;20037;-83
2021/05/04 02:12:25;;;;;;;4.65;3.58;;;;;;;11.14;45.75;99550.50;5055392;28;20048;-83
2021/05/04 02:14:54;;;;;;;6.05;4.32;;;;;;;11.16;45.95;99545.97;5052720;28;20057;-83
2021/05/04 02:17:20;;;;;;;6.10;4.00;;;;;;;11.23;45.21;99549.91;5047383;28;20045;-83
2021/05/04 02:19:46;;;;;;;4.65;3.85;;;;;;;11.19;45.71;99543.09;5059397;28;20041;-83
2021/05/04 02:22:13;;;;;;;3.60;3.10;;;;;;;11.17;45.38;99532.63;5081723;28;20036;-82
2021/05/04 02:24:41;;;;;;;5.32;3.35;;;;;;;11.13;45.45;99533.75;5062058;28;20045;-84
2021/05/04 02:27:09;;;;;;;4.20;3.42;;;;;;;11.11;45.55;99524.19;5059225;28;20052;-83
2021/05/04 02:29:36;;;;;;;5.22;3.65;;;;;;;11.09;45.05;99523.44;5059016;28;20878;-83
2021/05/04 02:32:03;;;;;;;3.90;3.50;;;;;;;11.08;45.20;99517.28;5063714;28;20053;-84
2021/05/04 02:34:29;;;;;;;5.40;3.60;;;;;;;11.13;45.06;99501.09;5062680;28;20084;-84
2021/05/04 02:36:55;;;;;;;6.32;3.55;;;;;;;11.15;45.10;99493.91;5063479;28;20053;-83
2021/05/04 02:39:21;;;;;;;5.25;3.85;;;;;;;11.17;45.09;99486.72;5065383;28;20104;-83
2021/05/04 02:41:48;;;;;;;4.15;3.63;;;;;;;11.17;45.10;99481.41;5075981;28;20075;-81
2021/05/04 02:44:14;;;;;;;6.75;3.38;;;;;;;11.16;44.83;99469.97;5071167;28;20076;-82
2021/05/04 02:46:41;;;;;;;5.43;3.30;;;;;;;11.16;45.00;99463.81;5063902;28;20048;-82
2021/05/04 02:49:08;;;;;;;4.22;3.22;;;;;;;11.14;44.99;99466.56;5057405;28;20045;-84
2021/05/04 02:51:36;;;;;;;5.30;3.70;;;;;;;11.18;45.26;99462.75;5062102;28;20122;-82
2021/05/04 02:54:04;;;;;;;3.75;3.20;;;;;;;11.19;44.99;99460.94;5056282;28;20073;-84
2021/05/04 02:56:30;;;;;;;3.83;3.45;;;;;;;11.17;45.57;99447.81;5060565;28;20069;-83
2021/05/04 02:58:56;;;;;;;6.18;4.00;;;;;;;11.16;45.51;99442.63;5054335;28;20112;-83
2021/05/04 03:01:22;;;;;;;4.45;3.67;;;;;;;11.21;45.71;99435.22;5066503;28;20040;-83
2021/05/04 03:03:49;;;;;;;4.28;3.65;;;;;;;11.15;45.83;99425.03;5074990;28;20056;-82
2021/05/04 03:06:16;;;;;;;4.05;3.65;;;;;;;11.09;46.22;99430.69;5075592;28;20088;-83
2021/05/04 03:08:42;;;;;;;5.38;3.50;;;;;;;11.08;46.44;99423.69;5078583;28;20056;-82
2021/05/04 03:11:08;;;;;;;4.07;3.63;;;;;;;11.11;46.41;99412.91;5074764;28;20048;-83
2021/05/04 03:13:35;;;;;;;6.60;3.40;;;;;;;11.03;46.64;99407.25;5073415;28;20059;-83
2021/05/04 03:16:03;;;;;;;5.47;3.58;;;;;;;11.02;46.81;99402.94;5033564;28;20073;-83
2021/05/04 03:18:30;;;;;;;5.78;3.50;;;;;;;10.94;46.54;99395.44;5072196;28;20069;-83
2021/05/04 03:20:56;;;;;;;4.68;3.50;;;;;;;10.91;46.80;99395.66;5073987;28;20045;-83
2021/05/04 03:23:23;;;;;;;4.70;3.45;;;;;;;10.89;47.20;99386.94;5071039;28;20030;-83
2021/05/04 03:25:50;;;;;;;4.90;3.58;;;;;;;10.85;47.04;99378.38;5075855;28;20048;-83
2021/05/04 03:28:19;;;;;;;6.47;3.75;;;;;;;10.83;47.27;99372.31;5055775;28;20078;-84
2021/05/04 03:30:48;;;;;;;3.88;3.22;;;;;;;10.84;47.20;99373.16;5065615;28;20336;-82
2021/05/04 03:33:17;;;;;;;3.88;3.47;;;;;;;10.83;47.59;99374.97;5069193;28;20468;-83
2021/05/04 03:35:45;;;;;;;4.40;3.38;;;;;;;10.68;47.43;99362.72;5065081;28;20071;-82
2021/05/04 03:38:11;;;;;;;5.15;3.40;;;;;;;10.76;48.01;99378.94;5057779;28;20045;-82
2021/05/04 03:40:40;;;;;;;5.10;3.72;;;;;;;10.71;47.96;99357.19;5055314;28;20136;-83
2021/05/04 03:43:06;;;;;;;4.28;3.33;;;;;;;10.73;48.27;99359.75;5056007;28;20575;-84
2021/05/04 03:45:33;;;;;;;5.45;3.95;;;;;;;10.72;48.22;99360.69;5054818;28;20029;-83
2021/05/04 03:48:00;;;;;;;4.13;3.60;;;;;;;10.72;47.99;99358.03;5050819;28;20135;-83
2021/05/04 03:50:28;;;;;;;6.60;3.53;;;;;;;10.72;48.57;99361.53;5053330;28;20059;-83
2021/05/04 03:52:56;;;;;;;3.70;3.35;;;;;;;10.74;48.52;99349.06;5053177;28;20049;-83
2021/05/04 03:55:22;;;;;;;5.35;3.47;;;;;;;10.75;48.37;99347.25;5055726;28;20048;-83
2021/05/04 03:57:49;;;;;;;6.45;4.00;;;;;;;10.69;48.64;99337.94;5052895;28;20229;-83
2021/05/04 04:00:15;;;;;;;4.53;3.67;;;;;;;10.78;48.19;99353.22;5049798;28;20080;-83
2021/05/04 04:02:42;;;;;;;4.75;3.25;;;;;;;10.77;48.54;99335.63;5052799;28;20136;-83
2021/05/04 04:05:09;;;;;;;4.45;3.38;;;;;;;10.79;48.59;99331.09;5050500;28;20113;-83
2021/05/04 04:07:35;;;;;;;5.90;3.20;;;;;;;10.78;48.48;99331.19;5050386;28;20047;-83
2021/05/04 04:10:02;;;;;;;4.85;3.20;;;;;;;10.80;48.71;99332.78;5066986;28;20072;-82
2021/05/04 04:12:28;;;;;;;6.47;3.85;;;;;;;10.81;48.47;99341.59;5062368;28;20049;-82
2021/05/04 04:14:54;;;;;;;5.55;3.65;;;;;;;10.90;48.30;99330.38;5059516;28;20389;-82
2021/05/04 04:17:21;;;;;;;7.43;3.78;;;;;;;10.93;48.06;99331.97;5065710;28;20044;-82
2021/05/04 04:19:48;;;;;;;4.78;3.60;;;;;;;10.94;48.14;99331.03;5069401;28;20072;-83
2021/05/04 04:22:15;;;;;;;11.80;4.03;;;;;;;10.96;48.40;99318.53;5074232;28;20025;-83
2021/05/04 04:24:43;;;;;;;8.40;3.90;;;;;;;11.01;48.23;99325.25;5070265;28;20072;-82
2021/05/04 04:27:09;;;;;;;5.35;3.30;;;;;;;10.99;47.83;99310.41;5067355;28;20100;-84
2021/05/04 04:29:38;;;;;;;7.85;4.15;;;;;;;11.05;48.19;99310.81;5059137;28;20102;-83
2021/05/04 04:32:04;;;;;;;7.78;3.88;;;;;;;11.01;50.35;99301.41;5050354;28;20532;-80
2021/05/04 04:34:32;;;;;;;7.95;4.18;;;;;;;11.11;50.13;99299.00;5067639;28;20045;-84
2021/05/04 04:36:59;;;;;;;10.65;3.88;;;;;;;11.19;49.84;99309.91;5056748;28;20044;-84
2021/05/04 04:39:25;;;;;;;8.55;4.22;;;;;;;11.22;48.88;99299.97;5052989;28;20045;-83
2021/05/04 04:41:52;;;;;;;5.25;3.50;;;;;;;11.23;48.17;99291.06;5047110;28;20460;-84
2021/05/04 04:44:18;;;;;;;5.15;3.00;;;;;;;11.22;48.07;99288.50;5055813;28;20079;-82
2021/05/04 04:46:46;;;;;;;7.50;3.60;;;;;;;11.19;48.13;99284.25;5052052;28;20063;-84
2021/05/04 04:49:15;;;;;;;7.65;3.88;;;;;;;11.20;48.20;99295.72;5034237;28;22693;-84
2021/05/04 04:51:42;;;;;;;5.28;3.45;;;;;;;11.21;47.93;99287.66;5055110;28;20068;-84
2021/05/04 04:54:09;;;;;;;5.90;4.05;;;;;;;11.18;47.99;99290.50;5048040;28;20119;-83
2021/05/04 04:56:36;;;;;;;9.48;3.47;;;;;;;11.19;47.72;99288.72;5064208;28;20049;-84
2021/05/04 04:59:04;;;;;;;7.53;3.70;;;;;;;11.21;47.78;99281.50;5059447;28;20048;-81
2021/05/04 05:01:33;;;;;;;7.22;3.58;;;;;;;11.21;48.07;99289.47;5062805;28;20060;-84
2021/05/04 05:04:01;;;;;;;8.80;3.90;;;;;;;11.18;47.92;99284.34;5036303;28;20045;-82
2021/05/04 05:06:28;;;;;;;9.25;3.42;;;;;;;11.20;48.14;99299.22;5053837;28;20532;-82
2021/05/04 05:08:54;;;;;;;7.78;3.42;;;;;;;11.24;47.89;99290.09;5047501;28;20051;-83
2021/05/04 05:11:22;;;;;;;7.93;4.00;;;;;;;11.23;47.85;99293.72;5049623;28;20112;-83
2021/05/04 05:13:48;;;;;;;4.50;3.28;;;;;;;11.22;48.05;99293.81;5044875;28;20121;-83
2021/05/04 05:16:17;;;;;;;4.32;3.63;;;;;;;11.23;47.89;99293.72;5033087;28;20111;-83
2021/05/04 05:18:49;;;;;;;6.18;3.40;;;;;;;11.23;47.83;99287.56;5044545;28;20052;-82
2021/05/04 05:21:16;;;;;;;6.97;4.18;;;;;;;11.20;48.25;99283.31;5047753;28;20132;-83
2021/05/04 05:23:44;;;;;;;7.00;3.85;;;;;;;11.23;48.38;99287.56;5051233;28;20049;-83
2021/05/04 05:26:11;;;;;;;8.30;3.70;;;;;;;11.21;48.48;99273.56;5051283;28;20135;-82
2021/05/04 05:28:38;;;;;;;4.60;3.08;;;;;;;11.19;48.28;99263.06;5048819;28;20124;-82
2021/05/04 05:31:05;;;;;;;4.78;3.42;;;;;;;11.18;48.65;99263.16;5047015;28;20076;-84
2021/05/04 05:33:33;;;;;;;4.88;3.42;;;;;;;11.31;48.60;99282.59;5048559;28;20053;-83
2021/05/04 05:36:00;;;;;;;7.00;3.75;;;;;;;11.34;48.45;99284.19;5049021;28;20052;-83
2021/05/04 05:38:32;;;;;;;8.77;3.58;;;;;;;11.37;48.83;99270.72;5048418;28;20103;-83
2021/05/04 05:40:59;;;;;;;5.05;3.67;;;;;;;11.38;48.42;99272.41;5065930;28;20083;-83
2021/05/04 05:43:25;;;;;;;4.65;3.35;;;;;;;11.40;48.54;99284.63;5065943;28;20037;-83
2021/05/04 05:45:52;;;;;;;6.80;3.42;;;;;;;11.35;48.75;99257.56;5032297;28;20049;-82
2021/05/04 05:48:21;;;;;;;4.35;3.45;;;;;;;11.45;48.47;99268.41;5051710;28;20179;-83
2021/05/04 05:50:47;;;;;;;6.22;3.92;;;;;;;11.48;48.47;99271.72;5030042;28;20123;-83
2021/05/04 05:53:14;;;;;;;7.65;3.38;;;;;;;11.49;48.53;99259.31;5052922;28;20076;-83
2021/05/04 05:55:41;;;;;;;5.70;3.40;;;;;;;11.54;48.30;99257.16;5049302;28;20148;-83
2021/05/04 05:58:09;;;;;;;6.28;3.53;;;;;;;11.52;48.28;99254.63;5071903;28;20053;-83
2021/05/04 06:00:37;;;;;;;5.28;3.10;;;;;;;11.58;48.09;99262.16;5050680;28;20045;-84
2021/05/04 06:03:04;;;;;;;5.45;3.08;;;;;;;11.64;47.79;99265.34;5052548;28;20553;-82
2021/05/04 06:05:31;;;;;;;6.50;3.10;;;;;;;11.65;47.97;99254.63;5053768;28;20075;-83
2021/05/04 06:07:59;;;;;;;4.70;3.10;;;;;;;11.65;47.73;99244.00;5064092;28;20036;-83
2021/05/04 06:10:27;;;;;;;4.57;2.75;;;;;;;11.75;46.54;99257.50;5093520;28;20041;-83
2021/05/04 06:13:08;;;;;;;4.88;3.03;;;;;;;11.79;46.80;99257.22;5071215;28;20045;-83
2021/05/04 06:15:39;;;;;;;5.20;2.70;;;;;;;11.85;46.74;99255.91;5062984;28;20461;-83
2021/05/04 06:18:06;;;;;;;7.38;2.70;;;;;;;11.86;46.64;99255.81;5058321;28;20071;-84
2021/05/04 06:20:32;;;;;;;5.22;2.60;;;;;;;11.89;46.24;99262.72;5057661;28;20055;-84
2021/05/04 06:22:59;;;;;;;4.35;3.05;;;;;;;11.97;46.15;99256.84;5070077;28;20048;-83
2021/05/04 06:25:25;;;;;;;3.85;2.90;;;;;;;12.01;45.60;99247.72;5059072;28;20049;-85
2021/05/04 06:27:53;;;;;;;5.35;2.97;;;;;;;12.12;44.86;99261.09;5042040;28;20483;-83
2021/05/04 06:30:20;;;;;;;5.60;2.20;;;;;;;12.16;44.81;99255.44;5040445;28;20458;-83
2021/05/04 06:32:53;;;;;;;5.70;2.92;;;;;;;12.40;47.00;99247.53;5059492;28;20053;-83
2021/05/04 06:35:22;;;;;;;4.10;2.17;;;;;;;12.55;43.65;99245.56;5054589;28;20498;-83
2021/05/04 06:37:48;;;;;;;4.57;2.08;;;;;;;12.64;43.31;99245.72;5061226;28;20072;-84
2021/05/04 06:40:15;;;;;;;3.40;2.40;;;;;;;12.73;42.30;99228.28;5052616;28;20075;-83
2021/05/04 06:42:41;;;;;;;2.78;2.00;;;;;;;12.76;42.46;99236.00;5056181;28;20061;-82
2021/05/04 06:45:08;;;;;;;3.45;2.20;;;;;;;12.82;40.89;99226.72;5053250;28;20072;-82
2021/05/04 06:47:36;;;;;;;5.18;1.95;;;;;;;12.96;39.04;99230.03;5055761;28;20087;-83
2021/05/04 06:50:04;;;;;;;8.73;2.20;;;;;;;13.03;38.70;99226.94;5050899;28;20061;-82
2021/05/04 06:52:39;;;;;;;5.22;1.58;;;;;;;13.16;38.38;99225.91;5032934;28;20049;-84
2021/05/04 06:55:10;;;;;;;4.03;1.90;;;;;;;13.14;38.48;99242.91;5052651;28;20075;-83
2021/05/04 06:57:36;;;;;;;8.50;1.70;;;;;;;13.11;38.69;99230.69;5050901;28;20045;-83
2021/05/04 07:00:06;;;;;;;9.27;1.90;;;;;;;12.96;39.53;99232.69;5054491;28;20065;-83
2021/05/04 07:02:36;;;;;;;5.45;1.85;;;;;;;12.94;39.69;99242.59;5054723;28;20072;-84
2021/05/04 07:05:04;;;;;;;4.65;1.80;;;;;;;12.90;41.28;99249.13;5045610;28;20057;-83
2021/05/04 07:07:31;;;;;;;4.75;1.50;;;;;;;12.87;41.63;99244.03;5052815;28;20044;-83
2021/05/04 07:09:58;;;;;;;4.70;1.50;;;;;;;12.84;42.15;99238.09;5052936;28;20119;-83
2021/05/04 07:12:27;;;;;;;6.70;1.98;;;;;;;12.82;41.69;99229.38;5050820;28;21068;-83
2021/05/04 07:14:53;;;;;;;4.20;1.67;;;;;;;12.77;43.40;99268.72;5054205;28;20076;-82
2021/05/04 07:17:23;;;;;;;4.28;1.50;;;;;;;12.76;43.87;99264.38;5053366;28;20149;-83
2021/05/04 07:19:50;;;;;;;3.60;1.60;;;;;;;12.63;46.83;99270.59;5062123;28;20087;-82
2021/05/04 07:22:16;;;;;;;3.72;2.00;;;;;;;12.53;47.52;99274.88;5040413;28;20080;-81
2021/05/04 07:24:43;;;;;;;4.35;1.92;;;;;;;12.44;48.10;99251.63;5068438;28;20077;-82
2021/05/04 07:27:11;;;;;;;4.70;1.70;;;;;;;12.44;47.95;99280.00;5069054;28;20193;-80
2021/05/04 07:29:40;;;;;;;3.38;1.55;;;;;;;12.29;49.83;99250.94;5067631;28;20108;-81
2021/05/04 07:32:07;;;;;;;6.22;2.00;;;;;;;12.18;51.82;99248.22;5063652;28;20048;-81
2021/05/04 07:34:34;;;;;;;4.55;1.52;;;;;;;12.06;52.78;99270.34;5057778;28;20060;-81
2021/05/04 07:37:02;;;;;;;4.30;1.50;;;;;;;11.92;53.82;99263.34;5064457;28;20041;-82
2021/05/04 07:39:35;;;;;;;6.45;1.45;;;;;;;11.78;54.34;99249.34;5040592;28;20045;-82
2021/05/04 07:42:02;;;;;;;3.30;1.35;;;;;;;11.62;55.16;99264.59;5061828;28;20080;-82
2021/05/04 07:44:28;;;;;;;7.65;3.08;;;;;;;11.55;55.68;99245.59;5057652;28;20098;-82
2021/05/04 07:46:55;;;;;;;4.40;2.90;;;;;;;11.67;56.87;99251.84;5069479;28;20053;-80
2021/05/04 07:49:43;;;;;;;3.72;1.45;;;;;;;11.70;56.37;99235.75;5070643;28;20044;-83
2021/05/04 07:52:10;;;;;;;2.47;1.42;;;;;;;11.75;55.41;99244.22;5075147;28;20133;-83
2021/05/04 07:54:43;;;;;;;3.38;1.60;;;;;;;11.84;56.11;99247.09;5075935;28;20048;-82
2021/05/04 07:57:12;;;;;;;5.47;1.60;;;;;;;11.90;55.59;99244.03;5074196;28;20095;-83
2021/05/04 07:59:38;;;;;;;2.97;1.67;;;;;;;11.90;57.01;99248.50;5059917;28;20423;-83
2021/05/04 08:02:05;;;;;;;2.83;2.03;;;;;;;11.90;57.02;99232.56;5054512;28;20147;-83
2021/05/04 08:04:35;;;;;;;2.10;1.63;;;;;;;11.80;56.88;99223.59;5046681;28;20105;-83
2021/05/04 08:07:07;;;;;;;4.25;1.58;;;;;;;11.84;57.48;99241.81;5051715;28;20045;-84
2021/05/04 08:09:35;;;;;;;3.20;1.63;;;;;;;11.80;58.45;99242.16;5057464;28;20140;-84
2021/05/04 08:12:03;;;;;;;3.75;1.55;;;;;;;11.73;58.46;99235.53;5074274;28;20049;-81
2021/05/04 08:14:31;;;;;;;2.47;1.55;;;;;;;11.53;59.54;99243.06;5071744;28;20060;-82
2021/05/04 08:17:38;;;;;;;2.00;1.60;;;;;;;11.48;59.02;99233.75;5054246;28;20059;-82
2021/05/04 08:20:08;;;;;;;2.97;1.90;;;;;;;11.48;57.54;99224.00;5052896;28;20049;-82
2021/05/04 08:22:35;;;;;;;2.08;1.60;;;;;;;11.46;58.77;99225.91;5061540;28;20068;-82
2021/05/04 08:25:04;;;;;;;2.45;1.52;;;;;;;11.49;58.21;99223.00;5068904;28;20060;-83
2021/05/04 08:27:31;;;;;;;1.50;1.40;;;;;;;11.56;57.41;99229.59;5069010;28;20072;-82
2021/05/04 08:29:57;;;;;;;4.45;1.60;;;;;;;11.65;56.75;99227.28;5058425;28;20152;-82
2021/05/04 08:32:24;;;;;;;1.90;1.33;;;;;;;11.73;56.26;99236.38;5039220;28;20079;-83
2021/05/04 08:35:03;;;;;;;3.05;1.65;;;;;;;11.74;56.42;99238.06;5051780;28;20049;-83
2021/05/04 08:37:29;;;;;;;4.05;1.70;;;;;;;11.73;57.18;99222.28;5055843;28;20108;-83
2021/05/04 08:39:57;;;;;;;2.65;1.80;;;;;;;11.79;56.67;99235.16;5080051;28;20052;-83
2021/05/04 08:42:23;;;;;;;2.63;1.60;;;;;;;11.88;56.00;99234.47;5062453;28;20137;-82
2021/05/04 08:45:01;;;;;;;3.40;1.90;;;;;;;11.81;55.81;99228.75;5059045;28;20061;-81
2021/05/04 08:47:28;;;;;;;2.78;1.45;;;;;;;11.81;56.20;99234.06;5061238;28;20051;-82
2021/05/04 08:49:55;;;;;;;4.30;1.60;;;;;;;11.89;55.52;99229.06;5058835;28;20424;-83
2021/05/04 08:52:22;;;;;;;3.72;1.40;;;;;;;12.02;54.51;99236.16;5069236;28;20045;-82
2021/05/04 08:54:50;;;;;;;2.92;1.33;;;;;;;12.17;55.00;99241.22;5060297;28;20382;-82
2021/05/04 08:57:17;;;;;;;3.22;0.93;;;;;;;12.18;54.27;99239.41;5069492;28;20033;-83
2021/05/04 08:59:44;;;;;;;3.15;1.45;;;;;;;12.12;54.48;99250.47;5066714;28;20095;-83
2021/05/04 09:02:10;;;;;;;2.00;1.10;;;;;;;12.15;54.70;99240.47;5059055;28;20044;-81
2021/05/04 09:04:48;;;;;;;6.13;3.75;;;;;;;12.21;54.00;99263.09;5040631;28;20083;-81
2021/05/04 09:07:32;;;;;;;2.22;1.30;;;;;;;12.19;53.91;99249.06;5053539;28;20490;-84
2021/05/04 09:10:22;;;;;;;2.95;1.67;;;;;;;12.21;53.84;99240.03;5077781;28;20025;-81
2021/05/04 09:13:13;;;;;;;1.50;1.40;;;;;;;12.24;54.90;99238.97;5071214;28;20057;-83
2021/05/04 09:18:39;;;;;;;1.55;1.42;;;;;;;12.39;53.78;99251.16;5057166;28;20049;-82
2021/05/04 09:21:08;;;;;;;3.58;1.60;;;;;;;12.32;55.07;99241.91;5066145;28;20045;-83
2021/05/04 09:23:42;;;;;;;2.42;1.50;;;;;;;12.37;54.31;99236.28;5067107;28;20048;-84
2021/05/04 09:26:31;;;;;;;5.72;1.50;;;;;;;12.39;54.80;99231.72;5065470;28;20044;-84
2021/05/04 09:28:58;;;;;;;4.45;1.58;;;;;;;12.34;55.51;99247.13;5065180;28;20059;-83
2021/05/04 09:31:29;;;;;;;2.75;1.77;;;;;;;12.29;55.68;99261.56;5063485;28;20059;-83
2021/05/04 09:34:12;;;;;;;5.63;1.80;;;;;;;12.20;55.62;99251.63;5069066;28;20056;-83
2021/05/04 09:36:48;;;;;;;1.88;1.45;;;;;;;12.08;57.12;99241.88;5064466;28;20049;-82
2021/05/04 09:39:25;;;;;;;2.42;1.40;;;;;;;12.15;56.36;99248.44;5058630;28;20048;-82
2021/05/04 09:41:58;;;;;;;2.75;1.35;;;;;;;12.08;57.02;99241.03;5057553;28;20037;-82
2021/05/04 09:44:39;;;;;;;6.07;1.40;;;;;;;11.94;57.56;99229.59;5065518;28;20072;-83
2021/05/04 09:47:11;;;;;;;2.75;1.75;;;;;;;11.99;57.09;99247.81;5059303;28;20041;-82
2021/05/04 09:49:40;;;;;;;3.80;1.60;;;;;;;11.95;57.54;99235.75;5069829;28;20067;-83
2021/05/04 09:52:33;;;;;;;4.68;1.35;;;;;;;11.93;57.17;99235.03;5062698;28;20507;-83
2021/05/04 09:55:05;;;;;;;2.25;1.45;;;;;;;11.86;57.79;99226.63;5073368;28;20119;-82
2021/05/04 09:57:32;;;;;;;1.50;1.20;;;;;;;11.84;58.19;99233.84;5063290;28;20045;-83
2021/05/04 09:59:59;;;;;;;1.55;1.30;;;;;;;11.85;58.05;99230.25;5071319;28;20037;-82
2021/05/04 10:02:25;;;;;;;3.42;1.10;;;;;;;11.87;58.03;99240.75;5056168;28;20079;-83
2021/05/04 10:04:53;;;;;;;4.65;1.48;;;;;;;11.86;58.54;99247.84;5074559;28;20045;-83
2021/05/04 10:07:20;;;;;;;4.18;1.42;;;;;;;11.87;58.25;99251.34;5069348;28;20048;-83
2021/05/04 10:09:47;;;;;;;2.40;1.40;;;;;;;11.90;58.40;99245.84;5070453;28;20072;-84
2021/05/04 10:12:14;;;;;;;3.00;1.30;;;;;;;11.80;58.71;99242.16;5061998;28;20040;-83
2021/05/04 10:14:45;;;;;;;1.58;1.25;;;;;;;11.90;58.30;99228.13;5063560;28;20049;-83
2021/05/04 10:17:12;;;;;;;1.63;1.17;;;;;;;11.86;58.66;99237.25;5051498;28;20040;-82
2021/05/04 10:19:39;;;;;;;2.05;1.27;;;;;;;11.78;59.09;99255.50;5077876;28;20043;-83
2021/05/04 10:22:05;;;;;;;3.50;1.40;;;;;;;11.78;58.63;99249.34;5058059;28;20057;-82
2021/05/04 10:24:35;;;;;;;2.65;1.48;;;;;;;11.81;59.54;99265.03;5060649;28;20095;-83
2021/05/04 10:27:03;;;;;;;4.73;1.47;;;;;;;11.81;59.35;99241.16;5053756;28;20063;-82
2021/05/04 10:29:30;;;;;;;1.92;1.40;;;;;;;11.92;58.96;99239.47;5064490;28;20049;-83
2021/05/04 10:31:58;;;;;;;1.63;1.20;;;;;;;11.96;59.09;99256.03;5067887;28;20080;-82
2021/05/04 10:34:26;;;;;;;2.40;1.50;;;;;;;11.95;59.21;99256.97;5058741;28;20068;-83
2021/05/04 10:36:54;;;;;;;1.80;1.40;;;;;;;12.02;58.77;99252.06;5075379;28;20096;-82
2021/05/04 10:39:46;;;;;;;2.28;1.38;;;;;;;11.97;58.75;99260.34;5076266;28;20064;-82
2021/05/04 10:42:34;;;;;;;2.40;1.48;;;;;;;11.83;59.27;99268.44;5068850;28;20045;-82
2021/05/04 10:45:00;;;;;;;4.63;1.50;;;;;;;11.83;59.77;99268.44;5071803;28;20548;-83
2021/05/04 10:47:39;;;;;;;1.63;1.33;;;;;;;11.76;59.66;99265.38;5062260;28;20104;-83
2021/05/04 10:50:08;;;;;;;2.92;1.40;;;;;;;11.75;59.78;99270.75;5066458;28;20160;-81
2021/05/04 10:52:55;;;;;;;1.83;1.52;;;;;;;11.70;60.40;99256.94;5066847;28;20453;-83
2021/05/04 10:55:23;;;;;;;2.45;1.63;;;;;;;11.69;60.82;99268.50;5071046;28;20041;-82
2021/05/04 10:58:03;;;;;;;3.45;1.80;;;;;;;11.81;60.51;99270.34;5076768;28;20041;-82
2021/05/04 11:00:48;;;;;;;2.95;1.60;;;;;;;11.78;60.61;99267.94;5074137;28;20037;-83
2021/05/04 11:03:30;;;;;;;4.00;1.70;;;;;;;11.70;61.09;99271.06;5079031;28;20044;-83
2021/05/04 11:06:14;;;;;;;5.88;1.83;;;;;;;11.70;61.26;99259.59;5072733;28;20049;-81
2021/05/04 11:08:43;;;;;;;2.30;1.60;;;;;;;11.74;60.77;99277.00;5076594;28;20075;-81
2021/05/04 11:11:28;;;;;;;;;;;;;;;11.84;60.92;99276.28;5075303;28;20072;-83
2021/05/04 11:14:01;;;;;;;2.17;1.90;;;;;;;11.92;60.92;99271.31;5071290;28;19984;-82
2021/05/04 11:16:41;;;;;;;3.15;1.92;;;;;;;11.96;60.22;99271.09;5071118;28;20056;-83
2021/05/04 11:19:28;;;;;;;6.00;1.90;;;;;;;11.98;60.64;99275.31;5069120;28;20084;-79
2021/05/04 11:21:57;;;;;;;2.47;1.90;;;;;;;12.03;60.36;99259.94;5063730;28;20059;-81
2021/05/04 11:24:28;;;;;;;4.13;1.90;;;;;;;12.09;60.09;99274.56;5061788;28;20053;-82
2021/05/04 11:27:05;;;;;;;2.88;1.67;;;;;;;12.11;60.00;99270.00;5058656;28;20511;-82
2021/05/04 11:29:39;;;;;;;3.47;1.95;;;;;;;12.06;60.12;99270.34;5056311;28;20520;-82
2021/05/04 11:32:28;;;;;;;2.63;2.35;;;;;;;12.00;60.34;99261.94;5053494;28;20052;-82
2021/05/04 11:35:00;;;;;;;5.15;1.90;;;;;;;11.97;60.18;99257.69;5056865;28;20619;-82
2021/05/04 11:37:32;;;;;;;3.55;1.70;;;;;;;12.01;60.47;99240.59;5057750;28;20144;-82
2021/05/04 11:40:02;;;;;;;4.50;2.08;;;;;;;12.05;60.32;99249.22;5055619;28;20068;-82
2021/05/04 11:42:33;;;;;;;1.52;1.40;;;;;;;12.01;60.68;99243.25;5058101;28;20068;-81
2021/05/04 11:45:13;;;;;;;2.85;1.60;;;;;;;11.99;60.63;99253.13;5064437;28;20079;-82
2021/05/04 11:47:48;;;;;;;3.67;1.98;;;;;;;11.87;61.09;99244.25;5043868;28;20091;-81